Time;durP1;ratioP1;P1;durP2;ratioP2;P2;SDS_P1;SDS_P2;PMS_P1;PMS_P2;Temp;Humidity;BMP_temperature;BMP_pressure;BME280_temperature;BME280_humidity;BME280_pressure;Samples;Min_cycle;Max_cycle;Signal;HPM_P1;HPM_P2
2022/02/09 00:02:22;;;;;;;12.07;6.03;;;;;;;;;;10386166;28;20067;-62
2022/02/09 00:07:28;;;;;;;18.73;10.27;;;;;;;;;;10393556;28;20067;-62
2022/02/09 00:12:32;;;;;;;13.27;7.75;;;;;;;;;;10391965;28;20067;-62
2022/02/09 00:17:41;;;;;;;23.05;11.18;;;;;;;;;;10396795;28;20040;-62
2022/02/09 00:23:05;;;;;;;12.52;6.10;;;;;;;;;;10391822;28;20047;-62
2022/02/09 00:28:18;;;;;;;23.08;12.82;;;;;;;;;;10394718;28;20509;-62
2022/02/09 00:33:49;;;;;;;10.65;6.93;;;;;;;;;;10392696;28;20063;-62
2022/02/09 00:44:37;;;;;;;14.40;9.77;;;;;;;;;;10377264;28;20059;-62
2022/02/09 01:58:10;;;;;;;8.48;5.85;;;;;;;;;;10390343;28;20196;-62
2022/02/09 02:03:08;;;;;;;9.07;6.80;;;;;;;;;;10383236;28;20170;-63
2022/02/09 02:08:09;;;;;;;10.25;6.43;;;;;;;;;;10381982;28;20059;-62
2022/02/09 02:13:23;;;;;;;11.75;7.00;;;;;;;;;;10381431;28;20324;-62
2022/02/09 02:18:22;;;;;;;10.15;7.03;;;;;;;;;;10379094;28;20441;-62
2022/02/09 02:23:37;;;;;;;9.23;7.30;;;;;;;;;;10382242;28;20059;-62
2022/02/09 02:28:46;;;;;;;11.23;7.18;;;;;;;;;;10381609;28;20075;-63
2022/02/09 02:34:02;;;;;;;11.43;7.07;;;;;;;;;;10379808;28;20075;-63
2022/02/09 03:11:13;;;;;;;10.05;6.75;;;;;;;;;;10379800;28;20082;-62
2022/02/09 03:16:15;;;;;;;18.17;11.93;;;;;;;;;;10380395;28;20169;-62
2022/02/09 03:21:27;;;;;;;35.22;18.05;;;;;;;;;;10383091;28;20071;-63
2022/02/09 03:26:47;;;;;;;51.05;24.70;;;;;;;;;;10390284;28;20063;-63
2022/02/09 03:42:35;;;;;;;10.15;6.75;;;;;;;;;;10389249;28;20075;-62
2022/02/09 03:47:45;;;;;;;13.73;7.40;;;;;;;;;;10387035;28;20102;-63
2022/02/09 03:58:01;;;;;;;15.50;7.57;;;;;;;;;;10356080;28;20469;-63
2022/02/09 04:03:02;;;;;;;10.95;6.78;;;;;;;;;;10375941;28;20484;-63
2022/02/09 04:08:01;;;;;;;11.93;7.00;;;;;;;;;;10393160;28;20047;-63
2022/02/09 04:13:09;;;;;;;10.05;7.22;;;;;;;;;;10392390;28;20036;-63
2022/02/09 04:18:19;;;;;;;10.85;6.70;;;;;;;;;;10392059;28;20108;-63
2022/02/09 04:39:13;;;;;;;10.70;6.90;;;;;;;;;;10382444;28;20075;-63
2022/02/09 04:44:30;;;;;;;15.38;9.68;;;;;;;;;;10378387;28;20488;-62
2022/02/09 04:49:43;;;;;;;16.13;9.80;;;;;;;;;;10386407;28;20130;-63
2022/02/09 04:54:43;;;;;;;15.90;8.60;;;;;;;;;;10387096;28;20332;-63
2022/02/09 04:59:50;;;;;;;13.35;7.60;;;;;;;;;;10386105;28;20074;-63
2022/02/09 05:05:19;;;;;;;12.93;8.88;;;;;;;;;;10385337;28;20075;-63
2022/02/09 05:26:08;;;;;;;21.63;11.15;;;;;;;;;;10382385;28;20075;-62
2022/02/09 05:31:08;;;;;;;14.60;9.65;;;;;;;;;;10359498;28;20078;-62
2022/02/09 05:36:09;;;;;;;16.67;8.85;;;;;;;;;;10367476;28;20075;-62
2022/02/09 05:41:09;;;;;;;21.35;11.32;;;;;;;;;;10381157;28;20071;-63
2022/02/09 05:46:41;;;;;;;17.90;11.45;;;;;;;;;;10366070;28;20290;-63
2022/02/09 05:51:39;;;;;;;20.27;14.02;;;;;;;;;;10389495;28;20070;-62
2022/02/09 05:56:41;;;;;;;22.77;13.30;;;;;;;;;;10384041;28;20074;-63
2022/02/09 06:01:40;;;;;;;22.27;14.10;;;;;;;;;;10380277;28;20075;-63
2022/02/09 06:06:40;;;;;;;15.25;10.50;;;;;;;;;;10380937;28;20464;-62
2022/02/09 06:11:43;;;;;;;17.50;12.05;;;;;;;;;;10384594;28;20066;-62
2022/02/09 06:21:59;;;;;;;19.05;11.68;;;;;;;;;;10376388;28;20084;-63
2022/02/09 06:27:00;;;;;;;23.85;13.90;;;;;;;;;;10371567;28;20055;-63
2022/02/09 06:32:08;;;;;;;24.85;14.65;;;;;;;;;;10384497;28;20051;-63
2022/02/09 06:37:17;;;;;;;33.10;17.63;;;;;;;;;;10382459;28;20101;-63
2022/02/09 06:42:22;;;;;;;20.80;11.43;;;;;;;;;;10381565;28;20066;-62
2022/02/09 06:47:24;;;;;;;18.55;10.95;;;;;;;;;;10368483;28;20085;-62
2022/02/09 06:52:24;;;;;;;31.88;22.05;;;;;;;;;;10388948;28;20063;-63
2022/02/09 06:57:33;;;;;;;25.90;17.10;;;;;;;;;;10377664;28;20071;-65
2022/02/09 07:02:31;;;;;;;21.08;12.73;;;;;;;;;;10376981;28;20070;-63
2022/02/09 07:07:31;;;;;;;22.08;16.10;;;;;;;;;;10378822;28;20353;-65
2022/02/09 07:12:29;;;;;;;18.67;11.13;;;;;;;;;;10378293;28;20070;-64
2022/02/09 07:17:28;;;;;;;24.60;11.80;;;;;;;;;;10376436;28;20078;-66
2022/02/09 07:22:28;;;;;;;14.43;9.15;;;;;;;;;;10363524;28;20079;-63
2022/02/09 07:27:39;;;;;;;20.63;12.10;;;;;;;;;;10379536;28;20071;-64
2022/02/09 07:32:37;;;;;;;16.02;11.10;;;;;;;;;;10383877;28;20036;-64
2022/02/09 07:37:36;;;;;;;25.95;15.13;;;;;;;;;;10390883;28;20063;-64
2022/02/09 07:42:40;;;;;;;19.40;11.95;;;;;;;;;;10387647;28;20047;-64
2022/02/09 07:47:46;;;;;;;29.02;16.92;;;;;;;;;;10366513;28;20142;-64
2022/02/09 07:52:54;;;;;;;26.92;17.17;;;;;;;;;;10373650;28;20590;-64
2022/02/09 07:57:55;;;;;;;28.38;19.13;;;;;;;;;;10381184;28;20074;-64
2022/02/09 08:02:53;;;;;;;22.67;15.00;;;;;;;;;;10384729;28;20455;-64
2022/02/09 08:07:53;;;;;;;17.33;13.55;;;;;;;;;;10387672;28;20067;-64
2022/02/09 08:20:25;;;;;;;24.05;14.75;;;;;;;;;;10389664;28;20070;-63
2022/02/09 08:29:01;;;;;;;30.33;16.02;;;;;;;;;;10352954;28;20044;-64
2022/02/09 08:34:00;;;;;;;14.90;10.73;;;;;;;;;;10380544;28;20059;-64
2022/02/09 08:38:59;;;;;;;24.35;18.20;;;;;;;;;;10378970;28;20508;-64
2022/02/09 08:43:57;;;;;;;20.65;13.60;;;;;;;;;;10384157;28;20080;-63
2022/02/09 08:48:55;;;;;;;19.15;11.98;;;;;;;;;;10386259;28;20068;-63
2022/02/09 08:53:55;;;;;;;16.48;10.95;;;;;;;;;;10382346;28;20070;-64
2022/02/09 08:58:53;;;;;;;26.33;18.05;;;;;;;;;;10389617;28;20063;-63
2022/02/09 09:03:55;;;;;;;14.50;11.93;;;;;;;;;;10393305;28;20448;-64
2022/02/09 09:09:20;;;;;;;16.67;10.52;;;;;;;;;;10392804;28;20066;-64
2022/02/09 09:31:05;;;;;;;30.52;22.77;;;;;;;;;;10385448;28;20067;-65
2022/02/09 10:02:34;;;;;;;28.48;17.73;;;;;;;;;;10384415;28;20055;-64
2022/02/09 10:34:07;;;;;;;19.70;13.25;;;;;;;;;;10375247;28;20064;-64
2022/02/09 10:39:08;;;;;;;13.45;10.65;;;;;;;;;;10378029;28;20063;-64
2022/02/09 10:44:09;;;;;;;14.65;11.55;;;;;;;;;;10383598;28;20083;-64
2022/02/09 10:49:10;;;;;;;16.08;12.18;;;;;;;;;;10381734;28;20082;-64
2022/02/09 10:54:12;;;;;;;20.75;16.20;;;;;;;;;;10378824;28;20066;-65
2022/02/09 10:59:13;;;;;;;22.45;15.02;;;;;;;;;;10377848;28;20535;-65
2022/02/09 11:04:12;;;;;;;14.25;11.98;;;;;;;;;;10376134;28;20068;-65
2022/02/09 11:09:11;;;;;;;18.02;11.95;;;;;;;;;;10380706;28;20070;-65
2022/02/09 11:14:12;;;;;;;17.98;12.90;;;;;;;;;;10374779;28;20501;-64
2022/02/09 11:19:15;;;;;;;20.40;12.40;;;;;;;;;;10374020;28;20464;-64
2022/02/09 11:24:18;;;;;;;15.40;11.95;;;;;;;;;;10374945;28;20072;-64
2022/02/09 11:29:27;;;;;;;22.33;15.32;;;;;;;;;;10380615;28;20071;-63
2022/02/09 11:34:27;;;;;;;18.60;11.75;;;;;;;;;;10378735;28;20087;-64
2022/02/09 11:39:45;;;;;;;16.23;9.88;;;;;;;;;;10379082;28;20064;-66
2022/02/09 11:44:54;;;;;;;13.43;10.05;;;;;;;;;;10383379;28;20529;-65
2022/02/09 11:50:21;;;;;;;25.42;13.45;;;;;;;;;;10384707;28;20074;-65
2022/02/09 12:01:02;;;;;;;13.45;8.80;;;;;;;;;;10386786;28;20067;-64
2022/02/09 12:11:42;;;;;;;18.80;13.70;;;;;;;;;;10386483;28;20503;-64
2022/02/09 12:16:45;;;;;;;9.70;8.38;;;;;;;;;;10379930;28;20091;-65
2022/02/09 12:21:51;;;;;;;15.38;10.05;;;;;;;;;;10388445;28;20063;-64
2022/02/09 12:26:53;;;;;;;9.90;7.90;;;;;;;;;;10387791;28;20086;-65
2022/02/09 12:31:51;;;;;;;19.92;10.65;;;;;;;;;;10380058;28;20449;-65
2022/02/09 12:36:52;;;;;;;13.50;8.82;;;;;;;;;;10388839;28;20086;-64
2022/02/09 12:41:53;;;;;;;13.25;9.23;;;;;;;;;;10386763;28;20067;-65
2022/02/09 12:46:51;;;;;;;14.85;10.52;;;;;;;;;;10386097;28;20080;-64
2022/02/09 12:51:51;;;;;;;189.38;92.85;;;;;;;;;;10385364;28;20070;-64
2022/02/09 12:56:51;;;;;;;32.13;19.95;;;;;;;;;;10385645;28;20075;-65
2022/02/09 13:01:50;;;;;;;17.13;13.90;;;;;;;;;;10386141;28;20147;-64
2022/02/09 13:06:49;;;;;;;12.73;10.20;;;;;;;;;;10385623;28;20100;-65
2022/02/09 13:11:48;;;;;;;16.15;13.27;;;;;;;;;;10377254;28;20067;-65
2022/02/09 13:17:05;;;;;;;19.90;14.25;;;;;;;;;;10393565;28;20067;-65
2022/02/09 14:06:41;;;;;;;24.42;13.18;;;;;;;;;;10379545;28;20515;-64
2022/02/09 14:11:35;;;;;;;19.83;10.77;;;;;;;;;;10381893;28;20086;-65
2022/02/09 14:49:20;;;;;;;62.45;43.53;;;;;;;;;;10379717;28;20464;-65
2022/02/09 14:54:08;;;;;;;80.15;49.40;;;;;;;;;;10373511;28;20147;-65
2022/02/09 14:59:09;;;;;;;48.05;32.30;;;;;;;;;;10365962;28;20102;-65
2022/02/09 15:04:23;;;;;;;38.60;26.65;;;;;;;;;;10360118;28;20044;-65
2022/02/09 15:09:36;;;;;;;14.48;12.65;;;;;;;;;;10383327;28;20067;-65
2022/02/09 15:14:48;;;;;;;70.80;47.53;;;;;;;;;;10382220;28;20078;-65
2022/02/09 15:20:09;;;;;;;66.65;41.50;;;;;;;;;;10384490;28;20552;-65
2022/02/09 15:25:16;;;;;;;71.80;34.63;;;;;;;;;;10389741;28;20106;-65
2022/02/09 15:30:14;;;;;;;59.70;39.45;;;;;;;;;;10387575;28;20087;-65
2022/02/09 15:35:17;;;;;;;48.83;33.90;;;;;;;;;;10389927;28;20499;-65
2022/02/09 15:40:31;;;;;;;53.67;34.50;;;;;;;;;;10387250;28;20494;-65
2022/02/09 15:56:19;;;;;;;30.25;23.15;;;;;;;;;;10395258;28;20436;-64
2022/02/09 16:07:12;;;;;;;31.30;23.92;;;;;;;;;;10394587;28;20065;-64
2022/02/09 16:22:55;;;;;;;42.92;32.05;;;;;;;;;;10395733;28;20098;-64
2022/02/09 16:33:17;;;;;;;22.38;16.35;;;;;;;;;;10393725;28;20063;-64
2022/02/09 16:38:35;;;;;;;34.75;22.30;;;;;;;;;;10388538;28;20075;-64
2022/02/09 16:48:57;;;;;;;46.78;30.33;;;;;;;;;;10386921;28;20454;-64
2022/02/09 16:54:21;;;;;;;24.42;17.73;;;;;;;;;;10388304;28;20064;-64
2022/02/09 17:20:25;;;;;;;132.13;74.00;;;;;;;;;;10385533;28;20459;-64
2022/02/09 17:25:23;;;;;;;86.15;53.55;;;;;;;;;;10382650;28;20079;-64
2022/02/09 17:30:56;;;;;;;61.00;37.38;;;;;;;;;;10383674;28;20063;-64
2022/02/09 17:36:04;;;;;;;246.20;138.20;;;;;;;;;;10384382;28;20071;-64
2022/02/09 17:56:53;;;;;;;145.30;96.13;;;;;;;;;;10387354;28;20083;-65
2022/02/09 18:01:53;;;;;;;153.85;98.60;;;;;;;;;;10383479;28;20063;-65
2022/02/09 18:06:57;;;;;;;49.42;34.88;;;;;;;;;;10383490;28;20430;-64
2022/02/09 18:12:06;;;;;;;39.42;26.65;;;;;;;;;;10373831;28;20071;-64
2022/02/09 18:28:27;;;;;;;59.30;41.53;;;;;;;;;;10375308;28;20056;-65
2022/02/09 18:43:52;;;;;;;32.17;23.20;;;;;;;;;;10365567;28;20540;-63
2022/02/09 18:59:47;;;;;;;31.95;21.45;;;;;;;;;;10382437;28;20072;-62
2022/02/09 19:04:49;;;;;;;19.23;12.52;;;;;;;;;;10381775;28;20082;-63
2022/02/09 19:15:24;;;;;;;26.95;19.60;;;;;;;;;;10372757;28;20059;-63
2022/02/09 19:20:40;;;;;;;13.65;10.68;;;;;;;;;;10381611;28;20079;-64
2022/02/09 19:30:56;;;;;;;17.45;12.02;;;;;;;;;;10379056;28;20062;-65
2022/02/09 19:46:49;;;;;;;14.48;11.85;;;;;;;;;;10320292;27;20410;-63
2022/02/09 19:52:03;;;;;;;19.50;13.18;;;;;;;;;;10319340;28;20080;-65
2022/02/09 19:57:04;;;;;;;22.65;12.25;;;;;;;;;;10315104;28;20091;-65
2022/02/09 20:02:06;;;;;;;37.08;18.80;;;;;;;;;;10315403;28;20076;-62
2022/02/09 20:07:06;;;;;;;32.30;18.98;;;;;;;;;;10306804;28;20499;-62
2022/02/09 20:12:05;;;;;;;16.45;10.98;;;;;;;;;;10313455;28;20083;-63
2022/02/09 20:17:05;;;;;;;11.57;8.93;;;;;;;;;;10317185;28;20064;-63
2022/02/09 20:22:04;;;;;;;12.65;9.00;;;;;;;;;;10316599;28;20075;-63
2022/02/09 20:27:05;;;;;;;40.42;22.15;;;;;;;;;;10313340;28;20083;-63
2022/02/09 20:32:15;;;;;;;18.30;11.82;;;;;;;;;;10314269;28;20091;-64
2022/02/09 20:37:14;;;;;;;10.85;7.68;;;;;;;;;;10309466;28;20064;-65
2022/02/09 20:42:16;;;;;;;10.23;6.78;;;;;;;;;;10311399;28;20068;-64
2022/02/09 20:47:16;;;;;;;11.73;7.55;;;;;;;;;;10314739;28;20067;-65
2022/02/09 20:52:16;;;;;;;14.02;9.00;;;;;;;;;;10314663;28;20071;-64
2022/02/09 20:57:14;;;;;;;40.20;19.42;;;;;;;;;;10290461;28;20131;-64
2022/02/09 21:07:39;;;;;;;12.13;7.55;;;;;;;;;;10280212;28;20088;-64
2022/02/09 21:12:45;;;;;;;76.38;39.75;;;;;;;;;;10281955;28;20071;-63
2022/02/09 21:18:22;;;;;;;56.65;31.73;;;;;;;;;;10283873;28;20064;-63
2022/02/09 21:23:41;;;;;;;62.38;36.45;;;;;;;;;;10294276;28;20091;-64
2022/02/09 21:54:59;;;;;;;64.95;38.55;;;;;;;;;;10281875;28;20071;-64
2022/02/09 22:00:18;;;;;;;67.78;35.25;;;;;;;;;;10279423;28;20077;-64
2022/02/09 22:21:18;;;;;;;53.15;31.73;;;;;;;;;;10282263;28;20517;-64
2022/02/09 22:31:52;;;;;;;23.38;17.58;;;;;;;;;;10277387;28;20076;-64
2022/02/09 22:58:16;;;;;;;31.48;21.60;;;;;;;;;;10309876;28;20493;-63
2022/02/09 23:03:20;;;;;;;28.58;21.02;;;;;;;;;;10314368;28;20064;-64
2022/02/09 23:08:51;;;;;;;29.88;19.52;;;;;;;;;;10316732;28;20075;-64
2022/02/09 23:13:57;;;;;;;41.95;26.80;;;;;;;;;;10308268;28;20075;-64
2022/02/09 23:25:07;;;;;;;52.33;32.83;;;;;;;;;;10314478;28;20061;-64
2022/02/09 23:57:07;;;;;;;59.97;34.05;;;;;;;;;;10313284;28;20085;-65
